Terminal Aerodrome Forecast
Issued by NWS

Home | Current Version | Previous Version | Text Only | Print | Product List | Glossary On
Versions: 1 2 3 4 5 6 7 8 9 10 11 12 13 14 15 16 17 18 19 20 21 22 23 24 25 26 27 28 29 30 31 32 33 34
617
FTUS44 KHGX 221140
TAFSGR
TAF
KSGR 221140Z 2212/2312 21003KT P6SM SKC
     FM221700 19007KT P6SM VCTS SCT040CB SCT250
      TEMPO 2219/2222 5SM TSRA BKN030CB
     FM222200 16009KT P6SM VCSH BKN050 BKN250
     FM230300 16005KT P6SM FEW020 SCT150 BKN200=

USA.gov is the U.S. government's official web portal to all federal, state and local government web resources and services.